sensor_id;sensor_type;location;lat;lon;timestamp;pressure;altitude;pressure_sealevel;temperature;humidity
50349;BME280;36250;48.740;22.174;2023-03-20T00:01:57;100624.41;;;6.97;59.49
50349;BME280;36250;48.740;22.174;2023-03-20T00:04:23;100619.00;;;7.04;59.24
50349;BME280;36250;48.740;22.174;2023-03-20T00:06:49;100620.88;;;7.03;59.12
50349;BME280;36250;48.740;22.174;2023-03-20T00:09:15;100620.63;;;7.05;58.84
50349;BME280;36250;48.740;22.174;2023-03-20T00:11:52;100620.44;;;7.06;58.66
50349;BME280;36250;48.740;22.174;2023-03-20T00:14:20;100612.31;;;7.06;58.88
50349;BME280;36250;48.740;22.174;2023-03-20T00:16:47;100618.09;;;7.10;58.67
50349;BME280;36250;48.740;22.174;2023-03-20T00:21:43;100607.69;;;7.13;58.53
50349;BME280;36250;48.740;22.174;2023-03-20T00:24:10;100609.34;;;7.14;58.67
50349;BME280;36250;48.740;22.174;2023-03-20T00:26:36;100603.53;;;7.11;58.95
50349;BME280;36250;48.740;22.174;2023-03-20T00:29:03;100607.28;;;7.10;59.50
50349;BME280;36250;48.740;22.174;2023-03-20T00:31:31;100601.88;;;7.10;59.00
50349;BME280;36250;48.740;22.174;2023-03-20T00:33:59;100605.59;;;7.15;59.14
50349;BME280;36250;48.740;22.174;2023-03-20T00:36:25;100606.84;;;7.13;58.94
50349;BME280;36250;48.740;22.174;2023-03-20T00:38:51;100609.16;;;7.09;59.48
50349;BME280;36250;48.740;22.174;2023-03-20T00:41:26;100611.44;;;7.12;58.99
50349;BME280;36250;48.740;22.174;2023-03-20T00:43:56;100614.31;;;7.17;58.64
50349;BME280;36250;48.740;22.174;2023-03-20T00:46:23;100613.47;;;7.23;58.51
50349;BME280;36250;48.740;22.174;2023-03-20T00:48:50;100608.25;;;7.22;58.69
50349;BME280;36250;48.740;22.174;2023-03-20T00:51:16;100608.66;;;7.25;59.40
50349;BME280;36250;48.740;22.174;2023-03-20T00:53:42;100599.25;;;7.28;58.71
50349;BME280;36250;48.740;22.174;2023-03-20T00:58:49;100596.94;;;7.32;58.54
50349;BME280;36250;48.740;22.174;2023-03-20T01:01:15;100602.94;;;7.34;58.56
50349;BME280;36250;48.740;22.174;2023-03-20T01:03:42;100601.69;;;7.36;58.45
50349;BME280;36250;48.740;22.174;2023-03-20T01:06:10;100593.56;;;7.36;58.74
50349;BME280;36250;48.740;22.174;2023-03-20T01:08:36;100598.34;;;7.41;58.05
50349;BME280;36250;48.740;22.174;2023-03-20T01:11:02;100594.13;;;7.45;58.48
50349;BME280;36250;48.740;22.174;2023-03-20T01:13:29;100602.25;;;7.45;58.25
50349;BME280;36250;48.740;22.174;2023-03-20T01:15:56;100597.88;;;7.44;57.92
50349;BME280;36250;48.740;22.174;2023-03-20T01:18:23;100604.97;;;7.45;57.82
50349;BME280;36250;48.740;22.174;2023-03-20T01:20:49;100606.22;;;7.42;58.02
50349;BME280;36250;48.740;22.174;2023-03-20T01:23:17;100605.81;;;7.39;58.01
50349;BME280;36250;48.740;22.174;2023-03-20T01:25:43;100604.78;;;7.40;58.45
50349;BME280;36250;48.740;22.174;2023-03-20T01:28:18;100611.41;;;7.44;58.35
50349;BME280;36250;48.740;22.174;2023-03-20T01:30:45;100606.66;;;7.39;58.47
50349;BME280;36250;48.740;22.174;2023-03-20T01:33:15;100610.88;;;7.35;59.07
50349;BME280;36250;48.740;22.174;2023-03-20T01:35:41;100608.22;;;7.28;59.73
50349;BME280;36250;48.740;22.174;2023-03-20T01:38:23;100608.91;;;7.17;60.63
50349;BME280;36250;48.740;22.174;2023-03-20T01:40:59;100610.00;;;7.10;61.37
50349;BME280;36250;48.740;22.174;2023-03-20T01:43:27;100615.69;;;6.95;61.25
50349;BME280;36250;48.740;22.174;2023-03-20T01:48:22;100606.59;;;6.83;62.34
50349;BME280;36250;48.740;22.174;2023-03-20T01:50:51;100609.31;;;6.83;61.67
50349;BME280;36250;48.740;22.174;2023-03-20T01:53:22;100596.03;;;6.75;61.62
50349;BME280;36250;48.740;22.174;2023-03-20T01:55:50;100604.22;;;6.62;62.43
50349;BME280;36250;48.740;22.174;2023-03-20T01:58:26;100599.66;;;6.63;62.32
50349;BME280;36250;48.740;22.174;2023-03-20T02:00:53;100605.22;;;6.68;61.99
50349;BME280;36250;48.740;22.174;2023-03-20T02:03:19;100601.69;;;6.67;61.70
50349;BME280;36250;48.740;22.174;2023-03-20T02:05:45;100605.19;;;6.74;61.50
50349;BME280;36250;48.740;22.174;2023-03-20T02:10:42;100617.44;;;6.83;61.39
50349;BME280;36250;48.740;22.174;2023-03-20T02:13:09;100610.75;;;6.86;61.03
50349;BME280;36250;48.740;22.174;2023-03-20T02:15:50;100609.06;;;6.91;61.08
50349;BME280;36250;48.740;22.174;2023-03-20T02:18:17;100604.88;;;6.95;60.39
50349;BME280;36250;48.740;22.174;2023-03-20T02:26:47;100593.66;;;7.23;59.64
50349;BME280;36250;48.740;22.174;2023-03-20T02:29:57;100602.63;;;7.23;60.35
50349;BME280;36250;48.740;22.174;2023-03-20T02:38:32;100595.38;;;7.17;61.03
50349;BME280;36250;48.740;22.174;2023-03-20T02:51:58;100597.59;;;7.27;61.06
50349;BME280;36250;48.740;22.174;2023-03-20T02:54:38;100596.41;;;7.16;62.06
50349;BME280;36250;48.740;22.174;2023-03-20T02:57:22;100598.97;;;7.05;62.13
50349;BME280;36250;48.740;22.174;2023-03-20T02:59:56;100597.13;;;7.05;62.23
50349;BME280;36250;48.740;22.174;2023-03-20T03:02:36;100591.28;;;7.08;61.82
50349;BME280;36250;48.740;22.174;2023-03-20T03:05:09;100606.72;;;7.01;62.26
50349;BME280;36250;48.740;22.174;2023-03-20T03:07:36;100595.72;;;6.96;62.97
50349;BME280;36250;48.740;22.174;2023-03-20T03:10:11;100597.59;;;6.96;62.95
50349;BME280;36250;48.740;22.174;2023-03-20T03:12:42;100599.03;;;6.98;62.75
50349;BME280;36250;48.740;22.174;2023-03-20T03:17:46;100584.63;;;7.04;63.13
50349;BME280;36250;48.740;22.174;2023-03-20T03:20:21;100588.16;;;7.05;62.68
50349;BME280;36250;48.740;22.174;2023-03-20T03:22:47;100583.56;;;7.05;63.25
50349;BME280;36250;48.740;22.174;2023-03-20T03:25:13;100581.09;;;7.04;62.23
50349;BME280;36250;48.740;22.174;2023-03-20T03:27:41;100580.63;;;7.07;62.04
50349;BME280;36250;48.740;22.174;2023-03-20T03:32:48;100576.41;;;7.17;62.22
50349;BME280;36250;48.740;22.174;2023-03-20T03:35:19;100572.03;;;7.16;62.53
50349;BME280;36250;48.740;22.174;2023-03-20T03:38:01;100579.13;;;7.17;62.75
50349;BME280;36250;48.740;22.174;2023-03-20T03:40:35;100573.47;;;7.19;62.97
50349;BME280;36250;48.740;22.174;2023-03-20T03:43:39;100563.13;;;7.16;63.10
50349;BME280;36250;48.740;22.174;2023-03-20T03:48:54;100574.84;;;7.03;63.99
50349;BME280;36250;48.740;22.174;2023-03-20T03:51:27;100575.28;;;7.00;64.18
50349;BME280;36250;48.740;22.174;2023-03-20T03:53:59;100568.66;;;6.96;64.13
50349;BME280;36250;48.740;22.174;2023-03-20T03:56:28;100581.59;;;6.88;64.43
50349;BME280;36250;48.740;22.174;2023-03-20T03:59:00;100571.25;;;6.78;64.32
50349;BME280;36250;48.740;22.174;2023-03-20T04:01:28;100568.97;;;6.75;64.40
50349;BME280;36250;48.740;22.174;2023-03-20T04:04:00;100567.16;;;6.69;64.61
50349;BME280;36250;48.740;22.174;2023-03-20T04:06:27;100567.75;;;6.71;65.18
50349;BME280;36250;48.740;22.174;2023-03-20T04:08:53;100559.22;;;6.74;64.82
50349;BME280;36250;48.740;22.174;2023-03-20T04:11:21;100563.75;;;6.80;64.30
50349;BME280;36250;48.740;22.174;2023-03-20T04:13:49;100567.09;;;6.82;64.16
50349;BME280;36250;48.740;22.174;2023-03-20T04:16:16;100573.72;;;6.86;64.16
50349;BME280;36250;48.740;22.174;2023-03-20T04:18:43;100565.38;;;6.88;63.92
50349;BME280;36250;48.740;22.174;2023-03-20T04:21:09;100578.34;;;6.79;65.35
50349;BME280;36250;48.740;22.174;2023-03-20T04:23:35;100569.66;;;6.64;65.34
50349;BME280;36250;48.740;22.174;2023-03-20T04:26:00;100572.69;;;6.43;67.00
50349;BME280;36250;48.740;22.174;2023-03-20T04:28:26;100572.69;;;6.36;67.89
50349;BME280;36250;48.740;22.174;2023-03-20T04:30:57;100578.50;;;6.33;68.53
50349;BME280;36250;48.740;22.174;2023-03-20T04:33:23;100569.16;;;6.36;68.50
50349;BME280;36250;48.740;22.174;2023-03-20T04:35:49;100563.13;;;6.40;68.04
50349;BME280;36250;48.740;22.174;2023-03-20T04:38:15;100566.63;;;6.47;68.04
50349;BME280;36250;48.740;22.174;2023-03-20T04:40:42;100565.13;;;6.51;67.60
50349;BME280;36250;48.740;22.174;2023-03-20T04:43:08;100570.31;;;6.59;67.32
50349;BME280;36250;48.740;22.174;2023-03-20T04:45:33;100578.19;;;6.61;67.35
50349;BME280;36250;48.740;22.174;2023-03-20T04:47:58;100572.22;;;6.46;67.62
50349;BME280;36250;48.740;22.174;2023-03-20T04:50:25;100574.56;;;6.42;68.05
50349;BME280;36250;48.740;22.174;2023-03-20T04:52:50;100574.56;;;6.42;67.96
50349;BME280;36250;48.740;22.174;2023-03-20T04:55:15;100581.59;;;6.50;67.20
50349;BME280;36250;48.740;22.174;2023-03-20T04:57:41;100580.91;;;6.61;67.06
50349;BME280;36250;48.740;22.174;2023-03-20T05:00:07;100581.09;;;6.66;67.04
50349;BME280;36250;48.740;22.174;2023-03-20T05:02:32;100588.34;;;6.72;66.39
50349;BME280;36250;48.740;22.174;2023-03-20T05:04:57;100585.84;;;6.77;66.30
50349;BME280;36250;48.740;22.174;2023-03-20T05:07:23;100587.91;;;6.75;66.24
50349;BME280;36250;48.740;22.174;2023-03-20T05:09:48;100597.47;;;6.78;66.27
50349;BME280;36250;48.740;22.174;2023-03-20T05:12:14;100593.13;;;6.70;66.77
50349;BME280;36250;48.740;22.174;2023-03-20T05:14:39;100594.44;;;6.61;66.86
50349;BME280;36250;48.740;22.174;2023-03-20T05:17:05;100602.97;;;6.58;67.35
50349;BME280;36250;48.740;22.174;2023-03-20T05:19:31;100606.09;;;6.61;67.49
50349;BME280;36250;48.740;22.174;2023-03-20T05:21:56;100603.75;;;6.72;66.90
50349;BME280;36250;48.740;22.174;2023-03-20T05:24:21;100607.03;;;6.80;66.73
50349;BME280;36250;48.740;22.174;2023-03-20T05:26:47;100616.97;;;6.93;66.38
50349;BME280;36250;48.740;22.174;2023-03-20T05:29:12;100611.47;;;7.06;66.10
50349;BME280;36250;48.740;22.174;2023-03-20T05:31:38;100607.22;;;7.16;66.32
50349;BME280;36250;48.740;22.174;2023-03-20T05:34:03;100617.44;;;7.14;65.98
50349;BME280;36250;48.740;22.174;2023-03-20T05:36:29;100618.16;;;7.03;66.59
50349;BME280;36250;48.740;22.174;2023-03-20T05:38:55;100615.69;;;6.95;66.99
50349;BME280;36250;48.740;22.174;2023-03-20T05:41:20;100611.91;;;7.03;66.75
50349;BME280;36250;48.740;22.174;2023-03-20T05:43:45;100615.63;;;7.08;65.94
50349;BME280;36250;48.740;22.174;2023-03-20T05:46:11;100617.84;;;7.18;65.89
50349;BME280;36250;48.740;22.174;2023-03-20T05:48:36;100620.75;;;7.16;66.04
50349;BME280;36250;48.740;22.174;2023-03-20T05:51:01;100624.78;;;7.14;65.80
50349;BME280;36250;48.740;22.174;2023-03-20T05:53:27;100612.03;;;7.14;65.27
50349;BME280;36250;48.740;22.174;2023-03-20T05:55:52;100622.44;;;7.17;65.72
50349;BME280;36250;48.740;22.174;2023-03-20T05:58:18;100634.72;;;7.20;65.71
50349;BME280;36250;48.740;22.174;2023-03-20T06:00:43;100636.81;;;7.18;65.74
50349;BME280;36250;48.740;22.174;2023-03-20T06:03:08;100634.28;;;7.23;66.04
50349;BME280;36250;48.740;22.174;2023-03-20T06:05:34;100643.41;;;7.28;66.05
50349;BME280;36250;48.740;22.174;2023-03-20T06:08:00;100636.94;;;7.29;66.07
50349;BME280;36250;48.740;22.174;2023-03-20T06:10:25;100643.56;;;7.34;66.38
50349;BME280;36250;48.740;22.174;2023-03-20T06:12:52;100632.59;;;7.28;66.57
50349;BME280;36250;48.740;22.174;2023-03-20T06:15:17;100639.66;;;7.29;66.72
50349;BME280;36250;48.740;22.174;2023-03-20T06:17:43;100632.31;;;7.37;67.02
50349;BME280;36250;48.740;22.174;2023-03-20T06:20:08;100642.03;;;7.44;66.85
50349;BME280;36250;48.740;22.174;2023-03-20T06:22:34;100645.16;;;7.48;66.33
50349;BME280;36250;48.740;22.174;2023-03-20T06:25:00;100645.34;;;7.53;67.44
50349;BME280;36250;48.740;22.174;2023-03-20T06:27:25;100645.00;;;7.67;68.08
50349;BME280;36250;48.740;22.174;2023-03-20T06:29:51;100644.22;;;7.85;67.23
50349;BME280;36250;48.740;22.174;2023-03-20T06:32:17;100646.59;;;8.00;66.34
50349;BME280;36250;48.740;22.174;2023-03-20T06:34:42;100649.84;;;8.08;65.25
50349;BME280;36250;48.740;22.174;2023-03-20T06:37:08;100642.13;;;8.12;63.80
50349;BME280;36250;48.740;22.174;2023-03-20T06:39:33;100640.56;;;7.97;63.43
50349;BME280;36250;48.740;22.174;2023-03-20T06:41:59;100649.53;;;7.98;63.64
50349;BME280;36250;48.740;22.174;2023-03-20T06:44:24;100643.88;;;8.00;64.50
50349;BME280;36250;48.740;22.174;2023-03-20T06:46:51;100650.03;;;7.88;64.96
50349;BME280;36250;48.740;22.174;2023-03-20T06:49:16;100642.13;;;7.87;64.79
50349;BME280;36250;48.740;22.174;2023-03-20T06:51:42;100641.84;;;7.95;64.07
50349;BME280;36250;48.740;22.174;2023-03-20T06:54:07;100637.97;;;8.09;64.40
50349;BME280;36250;48.740;22.174;2023-03-20T06:56:32;100645.09;;;8.28;63.73
50349;BME280;36250;48.740;22.174;2023-03-20T06:58:58;100648.22;;;8.50;62.77
50349;BME280;36250;48.740;22.174;2023-03-20T07:01:23;100638.63;;;8.66;61.56
50349;BME280;36250;48.740;22.174;2023-03-20T07:03:49;100638.25;;;8.80;60.75
50349;BME280;36250;48.740;22.174;2023-03-20T07:06:14;100646.59;;;8.97;60.78
50349;BME280;36250;48.740;22.174;2023-03-20T07:08:42;100646.19;;;9.11;60.43
50349;BME280;36250;48.740;22.174;2023-03-20T07:11:07;100644.09;;;9.25;60.21
50349;BME280;36250;48.740;22.174;2023-03-20T07:13:33;100638.03;;;9.41;59.55
50349;BME280;36250;48.740;22.174;2023-03-20T07:16:01;100630.75;;;9.53;59.20
50349;BME280;36250;48.740;22.174;2023-03-20T07:18:27;100636.91;;;9.60;57.70
50349;BME280;36250;48.740;22.174;2023-03-20T07:20:53;100642.09;;;9.62;57.89
50349;BME280;36250;48.740;22.174;2023-03-20T07:23:21;100643.66;;;9.69;58.22
50349;BME280;36250;48.740;22.174;2023-03-20T07:25:46;100646.50;;;9.74;57.58
50349;BME280;36250;48.740;22.174;2023-03-20T07:28:12;100640.22;;;9.74;57.51
50349;BME280;36250;48.740;22.174;2023-03-20T07:30:37;100644.94;;;9.78;57.75
50349;BME280;36250;48.740;22.174;2023-03-20T07:33:02;100639.88;;;9.82;57.94
50349;BME280;36250;48.740;22.174;2023-03-20T07:35:28;100642.47;;;9.88;57.77
50349;BME280;36250;48.740;22.174;2023-03-20T07:37:53;100638.97;;;10.00;57.18
50349;BME280;36250;48.740;22.174;2023-03-20T07:40:18;100638.84;;;10.06;56.71
50349;BME280;36250;48.740;22.174;2023-03-20T07:42:44;100641.38;;;10.19;56.97
50349;BME280;36250;48.740;22.174;2023-03-20T07:45:12;100637.56;;;10.32;56.87
50349;BME280;36250;48.740;22.174;2023-03-20T07:47:38;100638.84;;;10.52;56.97
50349;BME280;36250;48.740;22.174;2023-03-20T07:50:04;100638.81;;;10.76;56.44
50349;BME280;36250;48.740;22.174;2023-03-20T07:52:30;100637.09;;;10.98;56.29
50349;BME280;36250;48.740;22.174;2023-03-20T07:54:55;100638.28;;;11.18;56.20
50349;BME280;36250;48.740;22.174;2023-03-20T07:57:21;100639.06;;;11.31;54.65
50349;BME280;36250;48.740;22.174;2023-03-20T07:59:46;100643.78;;;11.35;55.65
50349;BME280;36250;48.740;22.174;2023-03-20T08:02:14;100636.19;;;11.37;55.44
50349;BME280;36250;48.740;22.174;2023-03-20T08:04:40;100636.88;;;11.44;55.42
50349;BME280;36250;48.740;22.174;2023-03-20T08:07:05;100648.09;;;11.48;55.81
50349;BME280;36250;48.740;22.174;2023-03-20T08:09:31;100641.69;;;11.54;55.27
50349;BME280;36250;48.740;22.174;2023-03-20T08:11:56;100640.19;;;11.63;55.59
50349;BME280;36250;48.740;22.174;2023-03-20T08:14:22;100641.34;;;11.67;55.07
50349;BME280;36250;48.740;22.174;2023-03-20T08:16:47;100644.06;;;11.67;54.63
50349;BME280;36250;48.740;22.174;2023-03-20T08:19:12;100644.44;;;11.70;54.29
50349;BME280;36250;48.740;22.174;2023-03-20T08:21:38;100645.84;;;11.73;54.28
50349;BME280;36250;48.740;22.174;2023-03-20T08:24:04;100644.38;;;11.82;53.86
50349;BME280;36250;48.740;22.174;2023-03-20T08:26:30;100646.69;;;11.90;53.23
50349;BME280;36250;48.740;22.174;2023-03-20T08:28:56;100642.47;;;11.99;52.56
50349;BME280;36250;48.740;22.174;2023-03-20T08:31:21;100643.69;;;12.08;53.21
50349;BME280;36250;48.740;22.174;2023-03-20T08:33:47;100644.34;;;12.15;52.48
50349;BME280;36250;48.740;22.174;2023-03-20T08:36:13;100640.06;;;12.19;51.76
50349;BME280;36250;48.740;22.174;2023-03-20T08:38:40;100642.03;;;12.24;51.49
50349;BME280;36250;48.740;22.174;2023-03-20T08:41:06;100646.75;;;12.28;49.67
50349;BME280;36250;48.740;22.174;2023-03-20T08:43:32;100638.97;;;12.37;49.83
50349;BME280;36250;48.740;22.174;2023-03-20T08:45:57;100641.16;;;12.40;48.57
50349;BME280;36250;48.740;22.174;2023-03-20T08:48:22;100639.84;;;12.42;48.10
50349;BME280;36250;48.740;22.174;2023-03-20T08:50:48;100641.00;;;12.46;47.47
50349;BME280;36250;48.740;22.174;2023-03-20T08:53:13;100641.72;;;12.59;48.72
50349;BME280;36250;48.740;22.174;2023-03-20T08:55:38;100640.75;;;12.70;47.80
50349;BME280;36250;48.740;22.174;2023-03-20T08:58:04;100639.75;;;12.76;46.10
50349;BME280;36250;48.740;22.174;2023-03-20T09:00:29;100644.59;;;12.90;46.37
50349;BME280;36250;48.740;22.174;2023-03-20T09:02:55;100639.75;;;12.97;44.28
50349;BME280;36250;48.740;22.174;2023-03-20T09:05:21;100635.91;;;12.98;45.44
50349;BME280;36250;48.740;22.174;2023-03-20T09:07:46;100638.00;;;13.08;44.33
50349;BME280;36250;48.740;22.174;2023-03-20T09:10:12;100628.25;;;13.17;43.65
50349;BME280;36250;48.740;22.174;2023-03-20T09:12:37;100626.16;;;13.24;44.06
50349;BME280;36250;48.740;22.174;2023-03-20T09:15:04;100627.88;;;13.35;43.03
50349;BME280;36250;48.740;22.174;2023-03-20T09:17:30;100629.34;;;13.43;42.41
50349;BME280;36250;48.740;22.174;2023-03-20T09:19:56;100628.00;;;13.45;42.99
50349;BME280;36250;48.740;22.174;2023-03-20T09:22:21;100629.94;;;13.50;42.45
50349;BME280;36250;48.740;22.174;2023-03-20T09:24:47;100621.19;;;13.48;42.29
50349;BME280;36250;48.740;22.174;2023-03-20T09:27:12;100630.22;;;13.48;42.56
50349;BME280;36250;48.740;22.174;2023-03-20T09:29:39;100610.06;;;13.54;42.64
50349;BME280;36250;48.740;22.174;2023-03-20T09:32:04;100612.84;;;13.59;43.25
50349;BME280;36250;48.740;22.174;2023-03-20T09:34:30;100616.22;;;13.71;42.74
50349;BME280;36250;48.740;22.174;2023-03-20T09:36:55;100613.81;;;13.80;43.72
50349;BME280;36250;48.740;22.174;2023-03-20T09:39:21;100610.78;;;13.76;42.52
50349;BME280;36250;48.740;22.174;2023-03-20T09:41:48;100614.34;;;13.77;43.33
50349;BME280;36250;48.740;22.174;2023-03-20T09:47:07;100609.59;;;13.99;42.60
50349;BME280;36250;48.740;22.174;2023-03-20T09:52:03;100603.31;;;14.04;42.35
50349;BME280;36250;48.740;22.174;2023-03-20T09:54:41;100606.94;;;14.09;42.17
50349;BME280;36250;48.740;22.174;2023-03-20T09:57:18;100604.53;;;14.18;42.83
50349;BME280;36250;48.740;22.174;2023-03-20T09:59:46;100610.63;;;14.30;42.12
50349;BME280;36250;48.740;22.174;2023-03-20T10:02:24;100603.34;;;14.45;42.25
50349;BME280;36250;48.740;22.174;2023-03-20T10:04:54;100609.44;;;14.58;41.93
50349;BME280;36250;48.740;22.174;2023-03-20T10:07:20;100599.59;;;14.57;41.19
50349;BME280;36250;48.740;22.174;2023-03-20T10:09:46;100598.78;;;14.61;40.94
50349;BME280;36250;48.740;22.174;2023-03-20T10:12:48;100602.34;;;14.62;42.19
50349;BME280;36250;48.740;22.174;2023-03-20T10:18:23;100601.06;;;14.84;42.28
50349;BME280;36250;48.740;22.174;2023-03-20T10:21:02;100594.19;;;14.82;42.28
50349;BME280;36250;48.740;22.174;2023-03-20T10:23:41;100595.81;;;14.73;42.00
50349;BME280;36250;48.740;22.174;2023-03-20T10:26:16;100588.69;;;14.72;41.59
50349;BME280;36250;48.740;22.174;2023-03-20T10:28:51;100590.88;;;14.75;42.09
50349;BME280;36250;48.740;22.174;2023-03-20T10:34:35;100582.69;;;14.85;40.57
50349;BME280;36250;48.740;22.174;2023-03-20T10:42:16;100584.72;;;15.20;40.63
50349;BME280;36250;48.740;22.174;2023-03-20T10:44:49;100573.25;;;15.38;40.58
50349;BME280;36250;48.740;22.174;2023-03-20T10:47:17;100561.75;;;15.56;39.86
50349;BME280;36250;48.740;22.174;2023-03-20T10:49:47;100569.44;;;15.64;39.03
50349;BME280;36250;48.740;22.174;2023-03-20T10:52:35;100565.03;;;15.58;38.70
50349;BME280;36250;48.740;22.174;2023-03-20T10:55:15;100559.28;;;15.59;39.31
50349;BME280;36250;48.740;22.174;2023-03-20T10:57:51;100559.53;;;15.73;39.01
50349;BME280;36250;48.740;22.174;2023-03-20T11:00:21;100558.47;;;15.84;38.50
50349;BME280;36250;48.740;22.174;2023-03-20T11:02:47;100554.34;;;15.92;37.30
50349;BME280;36250;48.740;22.174;2023-03-20T11:05:27;100548.00;;;16.01;37.71
50349;BME280;36250;48.740;22.174;2023-03-20T11:08:06;100561.13;;;16.09;37.28
50349;BME280;36250;48.740;22.174;2023-03-20T11:10:34;100550.69;;;16.16;36.70
50349;BME280;36250;48.740;22.174;2023-03-20T11:13:14;100545.69;;;16.38;35.73
50349;BME280;36250;48.740;22.174;2023-03-20T11:15:41;100540.16;;;16.54;33.58
50349;BME280;36250;48.740;22.174;2023-03-20T11:18:10;100536.00;;;16.61;34.74
50349;BME280;36250;48.740;22.174;2023-03-20T11:20:55;100526.91;;;16.66;34.88
50349;BME280;36250;48.740;22.174;2023-03-20T11:23:26;100535.66;;;16.78;35.16
50349;BME280;36250;48.740;22.174;2023-03-20T11:25:57;100522.41;;;16.85;33.93
50349;BME280;36250;48.740;22.174;2023-03-20T11:28:35;100528.13;;;16.98;32.32
50349;BME280;36250;48.740;22.174;2023-03-20T11:33:29;100523.53;;;17.28;33.37
50349;BME280;36250;48.740;22.174;2023-03-20T11:35:57;100523.63;;;17.46;33.60
50349;BME280;36250;48.740;22.174;2023-03-20T11:38:23;100529.09;;;17.51;32.70
50349;BME280;36250;48.740;22.174;2023-03-20T11:40:50;100517.56;;;17.54;30.58
50349;BME280;36250;48.740;22.174;2023-03-20T11:43:20;100518.66;;;17.53;30.47
50349;BME280;36250;48.740;22.174;2023-03-20T11:45:49;100516.47;;;17.55;31.26
50349;BME280;36250;48.740;22.174;2023-03-20T11:48:20;100514.72;;;17.64;32.01
50349;BME280;36250;48.740;22.174;2023-03-20T11:51:05;100517.94;;;17.71;30.99
50349;BME280;36250;48.740;22.174;2023-03-20T11:53:59;100512.16;;;17.73;31.22
50349;BME280;36250;48.740;22.174;2023-03-20T11:56:27;100504.97;;;17.77;31.95
50349;BME280;36250;48.740;22.174;2023-03-20T12:01:46;100495.63;;;17.73;31.31
50349;BME280;36250;48.740;22.174;2023-03-20T12:06:52;100497.47;;;17.54;30.85
50349;BME280;36250;48.740;22.174;2023-03-20T12:15:27;100491.34;;;17.62;30.87
50349;BME280;36250;48.740;22.174;2023-03-20T12:20:44;100486.66;;;17.62;31.33
50349;BME280;36250;48.740;22.174;2023-03-20T12:26:00;100478.94;;;17.64;31.42
50349;BME280;36250;48.740;22.174;2023-03-20T12:28:52;100481.91;;;17.68;31.28
50349;BME280;36250;48.740;22.174;2023-03-20T12:31:45;100478.41;;;17.62;31.99
50349;BME280;36250;48.740;22.174;2023-03-20T12:34:18;100478.06;;;17.93;30.76
50349;BME280;36250;48.740;22.174;2023-03-20T12:36:50;100475.28;;;18.21;30.84
50349;BME280;36250;48.740;22.174;2023-03-20T12:39:23;100467.47;;;18.05;31.33
50349;BME280;36250;48.740;22.174;2023-03-20T12:44:55;100465.78;;;18.93;30.24
50349;BME280;36250;48.740;22.174;2023-03-20T12:50:32;100463.31;;;18.55;30.74
50349;BME280;36250;48.740;22.174;2023-03-20T12:53:30;100459.09;;;18.38;31.70
50349;BME280;36250;48.740;22.174;2023-03-20T13:01:54;100456.44;;;19.08;31.66
50349;BME280;36250;48.740;22.174;2023-03-20T13:10:20;100448.09;;;19.13;30.81
50349;BME280;36250;48.740;22.174;2023-03-20T13:13:03;100441.06;;;19.21;31.24
50349;BME280;36250;48.740;22.174;2023-03-20T13:18:44;100435.44;;;19.26;30.35
50349;BME280;36250;48.740;22.174;2023-03-20T13:21:31;100434.94;;;19.24;30.36
50349;BME280;36250;48.740;22.174;2023-03-20T13:29:26;100433.22;;;19.60;29.92
50349;BME280;36250;48.740;22.174;2023-03-20T13:32:14;100427.47;;;20.65;28.87
50349;BME280;36250;48.740;22.174;2023-03-20T13:37:47;100416.38;;;22.63;26.22
50349;BME280;36250;48.740;22.174;2023-03-20T13:40:20;100410.97;;;23.27;25.38
50349;BME280;36250;48.740;22.174;2023-03-20T13:42:49;100409.03;;;23.82;23.95
50349;BME280;36250;48.740;22.174;2023-03-20T13:48:00;100414.25;;;23.12;25.42
50349;BME280;36250;48.740;22.174;2023-03-20T13:59:52;100406.06;;;23.24;24.71
50349;BME280;36250;48.740;22.174;2023-03-20T14:05:38;100404.63;;;23.01;24.83
50349;BME280;36250;48.740;22.174;2023-03-20T14:13:33;100401.94;;;20.05;28.26
50349;BME280;36250;48.740;22.174;2023-03-20T14:16:07;100403.38;;;20.30;27.91
50349;BME280;36250;48.740;22.174;2023-03-20T14:18:33;100396.31;;;20.73;27.74
50349;BME280;36250;48.740;22.174;2023-03-20T14:21:00;100397.78;;;21.15;27.39
50349;BME280;36250;48.740;22.174;2023-03-20T14:25:56;100383.53;;;22.40;25.95
50349;BME280;36250;48.740;22.174;2023-03-20T14:28:26;100387.94;;;22.49;25.70
50349;BME280;36250;48.740;22.174;2023-03-20T14:31:24;100380.47;;;22.75;25.95
50349;BME280;36250;48.740;22.174;2023-03-20T14:33:58;100386.34;;;22.65;25.16
50349;BME280;36250;48.740;22.174;2023-03-20T14:52:53;100374.38;;;23.42;24.90
50349;BME280;36250;48.740;22.174;2023-03-20T14:57:46;100366.75;;;24.35;24.02
50349;BME280;36250;48.740;22.174;2023-03-20T15:00:20;100367.84;;;24.43;23.67
50349;BME280;36250;48.740;22.174;2023-03-20T15:03:08;100370.31;;;24.15;23.29
50349;BME280;36250;48.740;22.174;2023-03-20T15:05:36;100371.44;;;23.21;24.43
50349;BME280;36250;48.740;22.174;2023-03-20T15:08:23;100367.53;;;22.54;25.27
50349;BME280;36250;48.740;22.174;2023-03-20T15:10:53;100370.75;;;22.13;26.12
50349;BME280;36250;48.740;22.174;2023-03-20T15:13:19;100378.84;;;21.62;26.63
50349;BME280;36250;48.740;22.174;2023-03-20T15:16:05;100377.31;;;20.45;28.24
50349;BME280;36250;48.740;22.174;2023-03-20T15:18:38;100380.16;;;19.90;29.23
50349;BME280;36250;48.740;22.174;2023-03-20T15:21:12;100381.78;;;19.32;30.29
50349;BME280;36250;48.740;22.174;2023-03-20T15:23:40;100376.81;;;18.83;30.92
50349;BME280;36250;48.740;22.174;2023-03-20T15:26:06;100377.19;;;18.39;31.31